createdAt,value
2023-05-10T00:00:05.697Z,96469.31
2023-05-10T00:02:32.245Z,96471.91
2023-05-10T00:04:58.770Z,96477.53
2023-05-10T00:07:25.223Z,96473.75
2023-05-10T00:09:51.694Z,96479.47
2023-05-10T00:12:18.237Z,96467.56
2023-05-10T00:14:44.707Z,96479.47
2023-05-10T00:17:11.095Z,96476.22
2023-05-10T00:19:37.470Z,96472.97
2023-05-10T00:22:04.009Z,96483.47
2023-05-10T00:24:30.387Z,96469.19
2023-05-10T00:26:56.742Z,96474.38
2023-05-10T00:29:23.092Z,96483.81
2023-05-10T00:31:49.581Z,96487.81
2023-05-10T00:34:16.268Z,96485.53
2023-05-10T00:36:42.673Z,96477.50
2023-05-10T00:39:09.063Z,96475.97
2023-05-10T00:41:35.440Z,96477.72
2023-05-10T00:44:02.989Z,96472.16
2023-05-10T00:46:29.740Z,96486.16
2023-05-10T00:48:56.354Z,96483.78
2023-05-10T00:51:23.025Z,96476.38
2023-05-10T00:53:50.317Z,96483.97
2023-05-10T00:56:17.001Z,96482.69
2023-05-10T00:58:43.614Z,96480.94
2023-05-10T01:01:10.712Z,96481.28
2023-05-10T01:03:38.146Z,96486.78
2023-05-10T01:06:04.769Z,96482.91
2023-05-10T01:08:31.146Z,96486.91
2023-05-10T01:10:58.110Z,96474.41
2023-05-10T01:13:33.710Z,96480.38
2023-05-10T01:16:02.788Z,96484.63
2023-05-10T01:18:31.624Z,96485.59
2023-05-10T01:21:12.272Z,96483.00
2023-05-10T01:23:57.298Z,96492.75
2023-05-10T01:26:29.755Z,96491.88
2023-05-10T01:29:14.890Z,96494.38
2023-05-10T01:32:06.180Z,96500.63
2023-05-10T01:34:40.756Z,96486.63
2023-05-10T01:37:11.924Z,96485.56
2023-05-10T01:39:46.864Z,96494.38
2023-05-10T01:42:20.801Z,96493.16
2023-05-10T01:44:55.079Z,96480.88
2023-05-10T01:47:45.880Z,96490.97
2023-05-10T01:50:19.924Z,96490.00
2023-05-10T01:52:55.655Z,96496.72
2023-05-10T01:55:26.015Z,96502.16
2023-05-10T01:58:01.262Z,96494.78
2023-05-10T02:00:29.712Z,96493.88
2023-05-10T02:02:56.728Z,96503.50
2023-05-10T02:05:23.791Z,96502.94
2023-05-10T02:07:51.186Z,96510.69
2023-05-10T02:10:19.039Z,96497.88
2023-05-10T02:12:48.531Z,96509.19
2023-05-10T02:15:20.871Z,96516.84
2023-05-10T02:17:48.198Z,96519.44
2023-05-10T02:20:17.036Z,96520.09
2023-05-10T02:22:45.808Z,96510.66
2023-05-10T02:25:14.091Z,96511.72
2023-05-10T02:27:43.521Z,96505.31
2023-05-10T02:30:11.256Z,96519.94
2023-05-10T02:32:38.800Z,96516.72
2023-05-10T02:35:06.405Z,96526.81
2023-05-10T02:37:34.474Z,96516.50
2023-05-10T02:40:04.540Z,96528.00
2023-05-10T02:42:33.659Z,96520.94
2023-05-10T02:45:08.627Z,96527.69
2023-05-10T02:47:35.390Z,96522.91
2023-05-10T02:50:02.013Z,96530.09
2023-05-10T02:52:35.548Z,96529.41
2023-05-10T02:55:05.806Z,96539.84
2023-05-10T02:57:37.452Z,96536.81
2023-05-10T03:00:04.591Z,96533.69
2023-05-10T03:02:31.808Z,96531.91
2023-05-10T03:04:58.463Z,96529.00
2023-05-10T03:07:24.966Z,96530.84
2023-05-10T03:09:51.574Z,96532.00
2023-05-10T03:12:39.123Z,96528.13
2023-05-10T03:15:37.532Z,96531.34
2023-05-10T03:18:31.822Z,96540.19
2023-05-10T03:21:03.491Z,96536.94
2023-05-10T03:23:51.518Z,96534.34
2023-05-10T03:26:45.845Z,96545.94
2023-05-10T03:29:13.893Z,96538.78
2023-05-10T03:31:40.769Z,96531.19
2023-05-10T03:34:07.866Z,96540.75
2023-05-10T03:36:34.296Z,96534.97
2023-05-10T03:39:00.656Z,96551.16
2023-05-10T03:41:27.115Z,96534.97
2023-05-10T03:43:53.471Z,96549.28
2023-05-10T03:46:19.850Z,96554.19
2023-05-10T03:48:46.239Z,96535.41
2023-05-10T03:51:12.624Z,96559.19
2023-05-10T03:53:38.995Z,96563.97
2023-05-10T03:56:05.423Z,96556.03
2023-05-10T03:58:31.776Z,96549.75
2023-05-10T04:00:58.130Z,96548.09
2023-05-10T04:03:24.657Z,96540.28
2023-05-10T04:06:02.771Z,96564.69
2023-05-10T04:08:29.943Z,96548.44
2023-05-10T04:11:05.951Z,96541.47
2023-05-10T04:13:32.447Z,96540.75
2023-05-10T04:15:58.786Z,96545.19
2023-05-10T04:18:25.141Z,96547.44
2023-05-10T04:20:51.564Z,96539.09
2023-05-10T04:23:17.964Z,96556.16
2023-05-10T04:25:44.397Z,96551.88
2023-05-10T04:28:10.795Z,96555.19
2023-05-10T04:30:37.186Z,96556.25
2023-05-10T04:33:03.750Z,96563.31
2023-05-10T04:35:30.402Z,96555.81
2023-05-10T04:37:56.767Z,96568.19
2023-05-10T04:40:23.197Z,96560.72
2023-05-10T04:42:49.561Z,96573.72
2023-05-10T04:45:16.619Z,96579.16
2023-05-10T04:47:43.044Z,96585.22
2023-05-10T04:50:09.784Z,96580.38
2023-05-10T04:52:36.250Z,96593.44
2023-05-10T04:55:02.738Z,96595.84
2023-05-10T04:57:29.113Z,96598.34
2023-05-10T04:59:55.505Z,96603.97
2023-05-10T05:02:21.870Z,96599.28
2023-05-10T05:04:48.292Z,96597.78
2023-05-10T05:07:14.642Z,96600.94
2023-05-10T05:09:41.008Z,96594.69
2023-05-10T05:12:07.463Z,96606.88
2023-05-10T05:14:33.830Z,96594.84
2023-05-10T05:17:00.186Z,96603.22
2023-05-10T05:19:26.546Z,96611.25
2023-05-10T05:21:52.898Z,96597.25
2023-05-10T05:24:19.335Z,96609.31
2023-05-10T05:26:45.754Z,96612.53
2023-05-10T05:29:12.117Z,96616.44
2023-05-10T05:31:38.557Z,96603.00
2023-05-10T05:34:05.013Z,96606.03
2023-05-10T05:36:32.346Z,96609.63
2023-05-10T05:38:58.752Z,96612.78
2023-05-10T05:41:25.529Z,96617.16
2023-05-10T05:43:51.909Z,96620.00
2023-05-10T05:46:18.384Z,96619.16
2023-05-10T05:48:44.826Z,96618.72
2023-05-10T05:51:11.676Z,96613.75
2023-05-10T05:53:38.029Z,96609.88
2023-05-10T05:56:04.787Z,96610.28
2023-05-10T05:58:31.168Z,96620.59
2023-05-10T06:00:58.253Z,96607.13
2023-05-10T06:03:24.700Z,96617.03
2023-05-10T06:05:51.249Z,96620.41
2023-05-10T06:08:17.664Z,96616.41
2023-05-10T06:10:44.137Z,96616.63
2023-05-10T06:13:10.915Z,96626.72
2023-05-10T06:15:37.373Z,96625.22
2023-05-10T06:18:03.885Z,96630.13
2023-05-10T06:20:32.374Z,96625.31
2023-05-10T06:22:59.370Z,96623.03
2023-05-10T06:25:25.745Z,96630.63
2023-05-10T06:27:56.357Z,96633.53
2023-05-10T06:30:28.068Z,96626.53
2023-05-10T06:32:54.608Z,96634.44
2023-05-10T06:35:21.288Z,96633.91
2023-05-10T06:37:47.720Z,96641.06
2023-05-10T06:40:14.370Z,96646.81
2023-05-10T06:42:40.754Z,96661.91
2023-05-10T06:45:07.870Z,96660.63
2023-05-10T06:47:35.882Z,96656.47
2023-05-10T06:50:04.692Z,96654.16
2023-05-10T06:52:31.081Z,96656.28
2023-05-10T06:54:58.522Z,96658.16
2023-05-10T06:59:57.200Z,96661.25
2023-05-10T07:02:24.052Z,96653.47
2023-05-10T07:04:50.964Z,96654.75
2023-05-10T07:07:17.383Z,96664.97
2023-05-10T07:09:43.766Z,96662.22
2023-05-10T07:12:11.558Z,96676.94
2023-05-10T07:14:39.130Z,96666.88
2023-05-10T07:17:05.601Z,96671.25
2023-05-10T07:19:33.563Z,96676.88
2023-05-10T07:21:59.938Z,96672.44
2023-05-10T07:24:26.362Z,96676.78
2023-05-10T07:26:52.794Z,96670.53
2023-05-10T07:29:19.177Z,96683.78
2023-05-10T07:31:45.569Z,96692.94
2023-05-10T07:34:11.950Z,96688.03
2023-05-10T07:36:38.392Z,96695.00
2023-05-10T07:39:05.022Z,96697.63
2023-05-10T07:41:31.390Z,96701.75
2023-05-10T07:43:57.806Z,96703.06
2023-05-10T07:46:24.298Z,96696.88
2023-05-10T07:48:50.859Z,96719.69
2023-05-10T07:51:17.413Z,96710.56
2023-05-10T07:53:43.892Z,96705.81
2023-05-10T07:56:30.484Z,96715.78
2023-05-10T07:58:57.428Z,96715.81
2023-05-10T08:01:24.394Z,96706.66
2023-05-10T08:03:52.131Z,96724.06
2023-05-10T08:06:19.849Z,96712.97
2023-05-10T08:08:51.343Z,96711.97
2023-05-10T08:11:18.535Z,96716.78
2023-05-10T08:13:48.715Z,96713.81
2023-05-10T08:16:15.236Z,96715.34
2023-05-10T08:18:41.700Z,96717.31
2023-05-10T08:21:08.083Z,96725.66
2023-05-10T08:23:34.548Z,96719.47
2023-05-10T08:26:01.222Z,96719.94
2023-05-10T08:28:28.067Z,96728.94
2023-05-10T08:30:54.523Z,96725.59
2023-05-10T08:33:21.276Z,96721.97
2023-05-10T08:35:47.790Z,96722.63
2023-05-10T08:38:14.230Z,96720.00
2023-05-10T08:40:43.014Z,96732.72
2023-05-10T08:43:12.829Z,96727.19
2023-05-10T08:45:44.245Z,96725.75
2023-05-10T08:48:11.846Z,96730.63
2023-05-10T08:50:42.850Z,96739.13
2023-05-10T08:53:13.905Z,96732.47
2023-05-10T08:55:43.046Z,96732.41
2023-05-10T08:58:10.688Z,96738.06
2023-05-10T09:00:38.253Z,96738.06
2023-05-10T09:03:05.901Z,96743.25
2023-05-10T09:05:32.853Z,96741.41
2023-05-10T09:08:01.421Z,96746.63
2023-05-10T09:10:29.030Z,96748.16
2023-05-10T09:12:59.336Z,96754.81
2023-05-10T09:15:26.603Z,96752.53
2023-05-10T09:17:53.333Z,96759.94
2023-05-10T09:20:20.207Z,96771.34
2023-05-10T09:22:46.630Z,96774.81
2023-05-10T09:25:15.725Z,96774.94
2023-05-10T09:27:46.397Z,96755.91
2023-05-10T09:30:18.875Z,96767.41
2023-05-10T09:32:48.323Z,96769.69
2023-05-10T09:35:17.389Z,96774.25
2023-05-10T09:37:51.077Z,96760.56
2023-05-10T09:40:20.029Z,96769.69
2023-05-10T09:43:07.033Z,96777.31
2023-05-10T09:45:37.794Z,96773.28
2023-05-10T09:48:05.657Z,96781.91
2023-05-10T09:50:32.123Z,96767.75
2023-05-10T09:52:59.959Z,96782.84
2023-05-10T09:55:39.293Z,96780.81
2023-05-10T09:58:10.326Z,96779.06
2023-05-10T10:00:42.083Z,96781.13
2023-05-10T10:03:15.262Z,96775.69
2023-05-10T10:05:45.914Z,96779.50
2023-05-10T10:08:13.306Z,96776.75
2023-05-10T10:10:41.499Z,96778.28
2023-05-10T10:13:08.638Z,96782.97
2023-05-10T10:15:35.920Z,96779.34
2023-05-10T10:18:04.445Z,96773.47
2023-05-10T10:20:31.087Z,96784.16
2023-05-10T10:22:57.510Z,96784.91
2023-05-10T10:25:24.274Z,96794.25
2023-05-10T10:27:53.446Z,96805.56
2023-05-10T10:30:47.904Z,96800.09
2023-05-10T10:33:47.520Z,96797.06
2023-05-10T10:36:16.237Z,96784.84
2023-05-10T10:38:48.368Z,96801.53
2023-05-10T10:41:34.223Z,96800.47
2023-05-10T10:44:49.654Z,96795.25
2023-05-10T10:47:19.742Z,96794.16
2023-05-10T10:49:52.554Z,96800.88
2023-05-10T10:52:34.677Z,96805.28
2023-05-10T10:55:02.579Z,96807.53
2023-05-10T10:57:31.869Z,96800.94
2023-05-10T11:00:26.346Z,96811.03
2023-05-10T11:02:58.089Z,96811.28
2023-05-10T11:05:38.276Z,96799.53
2023-05-10T11:08:09.645Z,96804.69
2023-05-10T11:10:36.302Z,96812.50
2023-05-10T11:13:04.289Z,96810.31
2023-05-10T11:15:38.936Z,96807.47
2023-05-10T11:18:38.123Z,96815.63
2023-05-10T11:21:06.120Z,96812.22
2023-05-10T11:23:44.542Z,96806.50
2023-05-10T11:26:11.890Z,96802.69
2023-05-10T11:28:45.937Z,96805.78
2023-05-10T11:31:15.062Z,96799.56
2023-05-10T11:33:48.741Z,96807.19
2023-05-10T11:36:17.481Z,96815.63
2023-05-10T11:38:43.999Z,96817.91
2023-05-10T11:41:12.468Z,96809.56
2023-05-10T11:43:42.443Z,96814.88
2023-05-10T11:46:13.310Z,96814.69
2023-05-10T11:48:41.107Z,96806.06
2023-05-10T11:51:08.805Z,96806.53
2023-05-10T11:53:35.340Z,96802.53
2023-05-10T11:56:11.618Z,96809.66
2023-05-10T11:58:39.572Z,96817.97
2023-05-10T12:01:08.551Z,96809.34
2023-05-10T12:03:35.669Z,96803.41
2023-05-10T12:06:02.942Z,96808.38
2023-05-10T12:08:31.822Z,96811.75
2023-05-10T12:11:09.488Z,96819.25
2023-05-10T12:13:43.471Z,96811.97
2023-05-10T12:16:21.812Z,96822.09
2023-05-10T12:18:53.243Z,96813.97
2023-05-10T12:21:21.391Z,96827.44
2023-05-10T12:23:51.380Z,96831.66
2023-05-10T12:26:18.129Z,96832.56
2023-05-10T12:28:45.210Z,96831.78
2023-05-10T12:31:11.767Z,96845.00
2023-05-10T12:33:40.578Z,96849.31
2023-05-10T12:36:07.706Z,96840.97
2023-05-10T12:38:35.470Z,96836.31
2023-05-10T12:41:04.563Z,96838.94
2023-05-10T12:43:31.254Z,96850.94
2023-05-10T12:45:57.800Z,96863.78
2023-05-10T12:48:24.226Z,96862.16
2023-05-10T12:50:50.824Z,96857.91
2023-05-10T12:53:17.864Z,96856.50
2023-05-10T12:55:45.298Z,96864.88
2023-05-10T12:58:15.775Z,96864.41
2023-05-10T13:00:47.629Z,96857.47
2023-05-10T13:03:14.044Z,96855.81
2023-05-10T13:05:40.494Z,96857.47
2023-05-10T13:08:06.878Z,96862.09
2023-05-10T13:10:33.315Z,96873.09
2023-05-10T13:13:00.362Z,96864.38
2023-05-10T13:15:27.421Z,96852.97
2023-05-10T13:17:54.974Z,96862.94
2023-05-10T13:20:21.874Z,96859.84
2023-05-10T13:22:49.204Z,96850.03
2023-05-10T13:25:16.841Z,96849.56
2023-05-10T13:27:43.248Z,96848.53
2023-05-10T13:30:10.411Z,96846.66
2023-05-10T13:32:36.974Z,96853.41
2023-05-10T13:35:04.203Z,96853.50
2023-05-10T13:37:31.500Z,96849.47
2023-05-10T13:39:57.965Z,96854.06
2023-05-10T13:42:24.567Z,96850.63
2023-05-10T13:44:51.642Z,96860.59
2023-05-10T13:47:18.045Z,96848.03
2023-05-10T13:49:44.423Z,96850.75
2023-05-10T13:52:11.035Z,96843.31
2023-05-10T13:54:39.203Z,96846.22
2023-05-10T13:57:06.018Z,96846.56
2023-05-10T13:59:32.701Z,96849.34
2023-05-10T14:01:59.732Z,96843.34
2023-05-10T14:04:26.157Z,96841.59
2023-05-10T14:06:53.791Z,96853.06
2023-05-10T14:09:20.583Z,96841.19
2023-05-10T14:11:47.084Z,96846.91
2023-05-10T14:14:14.348Z,96844.22
2023-05-10T14:16:45.182Z,96837.31
2023-05-10T14:19:12.184Z,96839.31
2023-05-10T14:21:39.004Z,96838.06
2023-05-10T14:24:05.848Z,96818.22
2023-05-10T14:26:32.603Z,96835.94
2023-05-10T14:28:59.847Z,96831.13
2023-05-10T14:31:26.617Z,96833.81
2023-05-10T14:33:53.674Z,96830.78
2023-05-10T14:36:20.080Z,96826.56
2023-05-10T14:38:46.566Z,96826.84
2023-05-10T14:41:15.465Z,96830.53
2023-05-10T14:43:42.155Z,96818.56
2023-05-10T14:46:08.648Z,96827.41
2023-05-10T14:48:35.067Z,96822.44
2023-05-10T14:51:01.587Z,96824.88
2023-05-10T14:53:27.932Z,96822.28
2023-05-10T14:55:54.332Z,96824.63
2023-05-10T14:58:20.734Z,96833.09
2023-05-10T15:00:47.521Z,96820.75
2023-05-10T15:03:14.581Z,96827.00
2023-05-10T15:05:41.432Z,96820.41
2023-05-10T15:08:07.877Z,96825.94
2023-05-10T15:10:34.622Z,96830.13
2023-05-10T15:13:01.045Z,96836.03
2023-05-10T15:15:27.479Z,96826.38
2023-05-10T15:17:53.911Z,96818.69
2023-05-10T15:20:20.319Z,96818.84
2023-05-10T15:22:46.700Z,96821.97
2023-05-10T15:25:14.119Z,96810.72
2023-05-10T15:27:41.037Z,96820.75
2023-05-10T15:30:08.284Z,96830.53
2023-05-10T15:32:34.693Z,96821.75
2023-05-10T15:35:01.050Z,96829.59
2023-05-10T15:37:27.602Z,96829.06
2023-05-10T15:39:55.417Z,96821.91
2023-05-10T15:42:23.355Z,96821.56
2023-05-10T15:44:51.158Z,96823.53
2023-05-10T15:47:17.817Z,96834.41
2023-05-10T15:49:44.157Z,96837.63
2023-05-10T15:52:10.523Z,96840.78
2023-05-10T15:54:37.019Z,96841.84
2023-05-10T15:57:03.475Z,96841.22
2023-05-10T15:59:29.826Z,96839.34
2023-05-10T16:01:57.320Z,96842.19
2023-05-10T16:04:23.784Z,96851.13
2023-05-10T16:06:50.188Z,96838.44
2023-05-10T16:09:16.595Z,96849.66
2023-05-10T16:11:44.047Z,96848.91
2023-05-10T16:14:10.715Z,96857.81
2023-05-10T16:16:37.345Z,96848.72
2023-05-10T16:19:04.370Z,96856.69
2023-05-10T16:21:34.234Z,96851.56
2023-05-10T16:24:01.034Z,96858.16
2023-05-10T16:26:27.433Z,96859.97
2023-05-10T16:28:53.801Z,96851.50
2023-05-10T16:31:20.411Z,96870.56
2023-05-10T16:33:46.843Z,96860.09
2023-05-10T16:36:13.218Z,96875.34
2023-05-10T16:38:39.664Z,96872.22
2023-05-10T16:41:06.692Z,96861.75
2023-05-10T16:43:33.197Z,96859.78
2023-05-10T16:45:59.697Z,96862.94
2023-05-10T16:48:26.268Z,96860.22
2023-05-10T16:50:52.665Z,96858.38
2023-05-10T16:53:19.031Z,96862.53
2023-05-10T16:55:45.543Z,96857.72
2023-05-10T16:58:11.918Z,96878.84
2023-05-10T17:00:38.309Z,96866.84
2023-05-10T17:03:04.796Z,96872.09
2023-05-10T17:05:31.201Z,96870.56
2023-05-10T17:07:57.781Z,96869.06
2023-05-10T17:10:24.174Z,96870.91
2023-05-10T17:12:50.568Z,96863.72
2023-05-10T17:15:19.148Z,96864.06
2023-05-10T17:17:47.061Z,96861.34
2023-05-10T17:20:13.725Z,96867.09
2023-05-10T17:22:40.195Z,96869.59
2023-05-10T17:25:07.336Z,96881.78
2023-05-10T17:27:33.719Z,96868.41
2023-05-10T17:30:00.118Z,96874.81
2023-05-10T17:32:26.650Z,96873.41
2023-05-10T17:34:53.052Z,96880.69
2023-05-10T17:37:19.383Z,96878.50
2023-05-10T17:39:46.378Z,96888.38
2023-05-10T17:42:13.622Z,96876.31
2023-05-10T17:44:40.005Z,96881.13
2023-05-10T17:47:06.556Z,96878.75
2023-05-10T17:49:32.926Z,96882.00
2023-05-10T17:51:59.493Z,96875.47
2023-05-10T17:54:25.881Z,96881.59
2023-05-10T17:56:52.367Z,96880.72
2023-05-10T17:59:18.724Z,96886.69
2023-05-10T18:01:45.248Z,96888.13
2023-05-10T18:04:11.725Z,96883.56
2023-05-10T18:06:38.256Z,96884.53
2023-05-10T18:09:07.089Z,96889.78
2023-05-10T18:11:35.769Z,96885.44
2023-05-10T18:14:02.338Z,96899.16
2023-05-10T18:16:29.062Z,96884.34
2023-05-10T18:18:55.516Z,96894.03
2023-05-10T18:21:21.947Z,96889.25
2023-05-10T18:23:48.318Z,96888.28
2023-05-10T18:26:14.745Z,96895.34
2023-05-10T18:28:41.671Z,96898.50
2023-05-10T18:31:08.056Z,96888.78
2023-05-10T18:33:34.461Z,96887.59
2023-05-10T18:36:00.869Z,96906.28
2023-05-10T18:38:27.301Z,96911.31
2023-05-10T18:40:53.712Z,96910.31
2023-05-10T18:43:20.079Z,96908.00
2023-05-10T18:45:46.574Z,96916.06
2023-05-10T18:48:13.965Z,96910.50
2023-05-10T18:50:40.475Z,96908.66
2023-05-10T18:53:06.857Z,96907.97
2023-05-10T18:55:33.448Z,96909.91
2023-05-10T18:58:00.260Z,96913.16
2023-05-10T19:00:26.782Z,96925.44
2023-05-10T19:02:53.605Z,96912.47
2023-05-10T19:05:20.307Z,96913.88
2023-05-10T19:07:46.979Z,96917.66
2023-05-10T19:10:13.794Z,96931.13
2023-05-10T19:12:41.683Z,96931.97
2023-05-10T19:15:08.773Z,96947.41
2023-05-10T19:17:36.755Z,96930.94
2023-05-10T19:20:04.739Z,96931.78
2023-05-10T19:22:49.085Z,96935.47
2023-05-10T19:25:17.758Z,96947.41
2023-05-10T19:27:44.274Z,96948.03
2023-05-10T19:30:11.132Z,96945.78
2023-05-10T19:32:37.779Z,96935.22
2023-05-10T19:35:04.706Z,96948.69
2023-05-10T19:37:31.118Z,96948.09
2023-05-10T19:39:57.543Z,96952.44
2023-05-10T19:42:23.992Z,96953.25
2023-05-10T19:44:50.645Z,96948.19
2023-05-10T19:47:17.190Z,96950.94
2023-05-10T19:49:43.981Z,96953.84
2023-05-10T19:52:11.851Z,96931.41
2023-05-10T19:54:38.223Z,96947.47
2023-05-10T19:57:04.591Z,96960.66
2023-05-10T19:59:30.950Z,96955.63
2023-05-10T20:01:57.310Z,96956.84
2023-05-10T20:04:23.937Z,96950.59
2023-05-10T20:06:50.447Z,96944.91
2023-05-10T20:09:16.803Z,96953.66
2023-05-10T20:11:43.185Z,96960.84
2023-05-10T20:14:09.600Z,96964.19
2023-05-10T20:16:36.025Z,96957.16
2023-05-10T20:19:02.676Z,96961.31
2023-05-10T20:21:29.090Z,96952.28
2023-05-10T20:23:55.438Z,96959.16
2023-05-10T20:26:21.890Z,96963.44
2023-05-10T20:28:48.282Z,96954.91
2023-05-10T20:31:14.664Z,96956.09
2023-05-10T20:33:41.012Z,96958.56
2023-05-10T20:36:09.547Z,96956.28
2023-05-10T20:38:36.228Z,96957.25
2023-05-10T20:41:02.622Z,96949.59
2023-05-10T20:43:29.148Z,96953.13
2023-05-10T20:45:55.960Z,96960.66
2023-05-10T20:48:22.844Z,96965.41
2023-05-10T20:50:49.219Z,96950.88
2023-05-10T20:53:18.342Z,96951.50
2023-05-10T20:55:44.734Z,96946.31
2023-05-10T20:58:11.097Z,96951.69
2023-05-10T21:00:37.429Z,96962.09
2023-05-10T21:03:04.151Z,96965.31
2023-05-10T21:05:30.731Z,96954.19
2023-05-10T21:07:57.241Z,96956.03
2023-05-10T21:10:24.962Z,96948.41
2023-05-10T21:12:51.904Z,96936.38
2023-05-10T21:15:18.293Z,96952.25
2023-05-10T21:17:45.256Z,96955.47
2023-05-10T21:20:12.489Z,96942.97
2023-05-10T21:22:38.836Z,96948.16
2023-05-10T21:25:05.898Z,96937.66
2023-05-10T21:27:32.250Z,96941.41
2023-05-10T21:29:58.638Z,96942.34
2023-05-10T21:32:25.019Z,96945.72
2023-05-10T21:34:51.419Z,96954.41
2023-05-10T21:37:17.863Z,96944.94
2023-05-10T21:39:44.436Z,96961.44
2023-05-10T21:42:10.794Z,96950.41
2023-05-10T21:44:38.629Z,96951.34
2023-05-10T21:47:05.354Z,96953.94
2023-05-10T21:49:31.728Z,96945.84
2023-05-10T21:51:58.080Z,96954.84
2023-05-10T21:54:24.504Z,96956.06
2023-05-10T21:56:50.842Z,96949.34
2023-05-10T21:59:17.987Z,96945.84
2023-05-10T22:01:44.749Z,96959.88
2023-05-10T22:04:11.198Z,96948.88
2023-05-10T22:06:37.623Z,96957.00
2023-05-10T22:09:04.426Z,96962.06
2023-05-10T22:11:31.403Z,96966.97
2023-05-10T22:13:58.320Z,96962.84
2023-05-10T22:16:24.999Z,96954.59
2023-05-10T22:18:51.443Z,96959.19
2023-05-10T22:21:17.865Z,96950.81
2023-05-10T22:23:44.223Z,96943.47
2023-05-10T22:26:10.577Z,96953.41
2023-05-10T22:28:37.197Z,96941.97
2023-05-10T22:31:03.784Z,96957.69
2023-05-10T22:33:30.198Z,96959.84
2023-05-10T22:35:56.565Z,96945.94
2023-05-10T22:38:22.951Z,96950.66
2023-05-10T22:40:49.386Z,96967.03
2023-05-10T22:43:16.343Z,96956.31
2023-05-10T22:45:42.726Z,96961.94
2023-05-10T22:48:09.494Z,96956.63
2023-05-10T22:50:37.084Z,96969.75
2023-05-10T22:53:03.497Z,96960.28
2023-05-10T22:55:30.254Z,96968.69
2023-05-10T22:57:56.662Z,96966.69
2023-05-10T23:00:23.193Z,96969.28
2023-05-10T23:02:49.643Z,96970.97
2023-05-10T23:05:16.100Z,96968.06
2023-05-10T23:07:42.453Z,96970.50
2023-05-10T23:10:09.223Z,96967.31
2023-05-10T23:12:35.597Z,96970.03
2023-05-10T23:15:01.997Z,96970.34
2023-05-10T23:17:28.423Z,96974.91
2023-05-10T23:19:54.816Z,96972.03
2023-05-10T23:22:21.196Z,96967.44
2023-05-10T23:24:47.587Z,96971.09
2023-05-10T23:27:14.669Z,96972.94
2023-05-10T23:29:41.713Z,96980.25
2023-05-10T23:32:08.108Z,96981.78
2023-05-10T23:34:34.560Z,96978.75
2023-05-10T23:37:00.999Z,96972.50
2023-05-10T23:39:27.409Z,96976.13
2023-05-10T23:41:53.821Z,96973.25
2023-05-10T23:44:20.244Z,96982.25
2023-05-10T23:46:46.681Z,96974.00
2023-05-10T23:49:13.046Z,96969.88
2023-05-10T23:51:39.441Z,96971.13
2023-05-10T23:54:06.197Z,96963.63
2023-05-10T23:56:33.016Z,96968.53
2023-05-10T23:58:59.369Z,96964.22
